sensor_id;sensor_type;location;lat;lon;timestamp;temperature;humidity
38500;DHT22;24269;51.894;4.622;2022-07-12T00:01:20;17.40;99.90
38500;DHT22;24269;51.894;4.622;2022-07-12T00:03:45;17.30;99.90
38500;DHT22;24269;51.894;4.622;2022-07-12T00:06:11;17.30;99.90
38500;DHT22;24269;51.894;4.622;2022-07-12T00:08:37;17.30;99.90
38500;DHT22;24269;51.894;4.622;2022-07-12T00:11:04;17.30;99.90
38500;DHT22;24269;51.894;4.622;2022-07-12T00:13:30;17.20;99.90
38500;DHT22;24269;51.894;4.622;2022-07-12T00:15:56;17.20;99.90
38500;DHT22;24269;51.894;4.622;2022-07-12T00:18:23;17.10;99.90
38500;DHT22;24269;51.894;4.622;2022-07-12T00:20:49;17.10;99.90
38500;DHT22;24269;51.894;4.622;2022-07-12T00:23:15;17.00;99.90
38500;DHT22;24269;51.894;4.622;2022-07-12T00:25:40;17.10;99.90
38500;DHT22;24269;51.894;4.622;2022-07-12T00:28:07;17.00;99.90
38500;DHT22;24269;51.894;4.622;2022-07-12T00:30:32;17.00;99.90
38500;DHT22;24269;51.894;4.622;2022-07-12T00:32:58;17.00;99.90
38500;DHT22;24269;51.894;4.622;2022-07-12T00:35:24;17.00;99.90
38500;DHT22;24269;51.894;4.622;2022-07-12T00:37:49;17.00;99.90
38500;DHT22;24269;51.894;4.622;2022-07-12T00:40:15;16.90;99.90
38500;DHT22;24269;51.894;4.622;2022-07-12T00:42:41;17.00;99.90
38500;DHT22;24269;51.894;4.622;2022-07-12T00:45:08;16.90;99.90
38500;DHT22;24269;51.894;4.622;2022-07-12T00:47:44;16.90;99.90
38500;DHT22;24269;51.894;4.622;2022-07-12T00:50:17;16.90;99.90
38500;DHT22;24269;51.894;4.622;2022-07-12T00:52:44;16.90;99.90
38500;DHT22;24269;51.894;4.622;2022-07-12T00:55:11;16.90;99.90
38500;DHT22;24269;51.894;4.622;2022-07-12T00:57:41;16.90;99.90
38500;DHT22;24269;51.894;4.622;2022-07-12T01:00:10;16.90;99.90
38500;DHT22;24269;51.894;4.622;2022-07-12T01:02:36;16.90;99.90
38500;DHT22;24269;51.894;4.622;2022-07-12T01:05:04;16.80;99.90
38500;DHT22;24269;51.894;4.622;2022-07-12T01:07:31;16.80;99.90
38500;DHT22;24269;51.894;4.622;2022-07-12T01:09:57;16.80;99.90
38500;DHT22;24269;51.894;4.622;2022-07-12T01:12:24;16.80;99.90
38500;DHT22;24269;51.894;4.622;2022-07-12T01:14:51;16.80;99.90
38500;DHT22;24269;51.894;4.622;2022-07-12T01:17:20;16.80;99.90
38500;DHT22;24269;51.894;4.622;2022-07-12T01:19:50;16.70;99.90
38500;DHT22;24269;51.894;4.622;2022-07-12T01:22:17;16.70;99.90
38500;DHT22;24269;51.894;4.622;2022-07-12T01:24:44;16.70;99.90
38500;DHT22;24269;51.894;4.622;2022-07-12T01:27:11;16.60;99.90
38500;DHT22;24269;51.894;4.622;2022-07-12T01:29:37;16.60;99.90
38500;DHT22;24269;51.894;4.622;2022-07-12T01:32:03;16.60;99.90
38500;DHT22;24269;51.894;4.622;2022-07-12T01:34:58;16.60;99.90
38500;DHT22;24269;51.894;4.622;2022-07-12T01:37:25;16.50;99.90
38500;DHT22;24269;51.894;4.622;2022-07-12T01:39:55;16.50;99.90
38500;DHT22;24269;51.894;4.622;2022-07-12T01:42:21;16.50;99.90
38500;DHT22;24269;51.894;4.622;2022-07-12T01:44:48;16.50;99.90
38500;DHT22;24269;51.894;4.622;2022-07-12T01:47:15;16.40;99.90
38500;DHT22;24269;51.894;4.622;2022-07-12T01:49:41;16.40;99.90
38500;DHT22;24269;51.894;4.622;2022-07-12T01:52:06;16.40;99.90
38500;DHT22;24269;51.894;4.622;2022-07-12T01:54:32;16.40;99.90
38500;DHT22;24269;51.894;4.622;2022-07-12T01:56:58;16.40;99.90
38500;DHT22;24269;51.894;4.622;2022-07-12T01:59:24;16.40;99.90
38500;DHT22;24269;51.894;4.622;2022-07-12T02:01:50;16.40;99.90
38500;DHT22;24269;51.894;4.622;2022-07-12T02:04:17;16.40;99.90
38500;DHT22;24269;51.894;4.622;2022-07-12T02:06:44;16.40;99.90
38500;DHT22;24269;51.894;4.622;2022-07-12T02:09:11;16.40;99.90
38500;DHT22;24269;51.894;4.622;2022-07-12T02:11:37;16.30;99.90
38500;DHT22;24269;51.894;4.622;2022-07-12T02:14:03;16.30;99.90
38500;DHT22;24269;51.894;4.622;2022-07-12T02:16:29;16.30;99.90
38500;DHT22;24269;51.894;4.622;2022-07-12T02:18:54;16.30;99.90
38500;DHT22;24269;51.894;4.622;2022-07-12T02:21:20;16.30;99.90
38500;DHT22;24269;51.894;4.622;2022-07-12T02:23:45;16.20;99.90
38500;DHT22;24269;51.894;4.622;2022-07-12T02:26:11;16.20;99.90
38500;DHT22;24269;51.894;4.622;2022-07-12T02:28:37;16.20;99.90
38500;DHT22;24269;51.894;4.622;2022-07-12T02:31:02;16.20;99.90
38500;DHT22;24269;51.894;4.622;2022-07-12T02:33:28;16.10;99.90
38500;DHT22;24269;51.894;4.622;2022-07-12T02:35:53;16.10;99.90
38500;DHT22;24269;51.894;4.622;2022-07-12T02:38:19;16.10;99.90
38500;DHT22;24269;51.894;4.622;2022-07-12T02:40:47;16.10;99.90
38500;DHT22;24269;51.894;4.622;2022-07-12T02:43:33;16.10;99.90
38500;DHT22;24269;51.894;4.622;2022-07-12T02:48:30;16.00;99.90
38500;DHT22;24269;51.894;4.622;2022-07-12T02:50:55;16.00;99.90
38500;DHT22;24269;51.894;4.622;2022-07-12T02:53:21;16.00;99.90
38500;DHT22;24269;51.894;4.622;2022-07-12T02:55:47;16.00;99.90
38500;DHT22;24269;51.894;4.622;2022-07-12T02:58:14;16.00;99.90
38500;DHT22;24269;51.894;4.622;2022-07-12T03:00:39;15.90;99.90
38500;DHT22;24269;51.894;4.622;2022-07-12T03:03:06;16.00;99.90
38500;DHT22;24269;51.894;4.622;2022-07-12T03:05:35;15.90;99.90
38500;DHT22;24269;51.894;4.622;2022-07-12T03:08:03;15.90;99.90
38500;DHT22;24269;51.894;4.622;2022-07-12T03:10:29;15.90;99.90
38500;DHT22;24269;51.894;4.622;2022-07-12T03:12:55;15.90;99.90
38500;DHT22;24269;51.894;4.622;2022-07-12T03:15:21;15.90;99.90
38500;DHT22;24269;51.894;4.622;2022-07-12T03:17:46;15.80;99.90
38500;DHT22;24269;51.894;4.622;2022-07-12T03:20:12;15.80;99.90
38500;DHT22;24269;51.894;4.622;2022-07-12T03:22:45;15.80;99.90
38500;DHT22;24269;51.894;4.622;2022-07-12T03:25:14;15.80;99.90
38500;DHT22;24269;51.894;4.622;2022-07-12T03:27:39;15.80;99.90
38500;DHT22;24269;51.894;4.622;2022-07-12T03:30:06;15.80;99.90
38500;DHT22;24269;51.894;4.622;2022-07-12T03:32:32;15.80;99.90
38500;DHT22;24269;51.894;4.622;2022-07-12T03:34:57;15.70;99.90
38500;DHT22;24269;51.894;4.622;2022-07-12T03:37:23;15.70;99.90
38500;DHT22;24269;51.894;4.622;2022-07-12T03:39:49;15.70;99.90
38500;DHT22;24269;51.894;4.622;2022-07-12T03:42:14;15.70;99.90
38500;DHT22;24269;51.894;4.622;2022-07-12T03:44:40;15.60;99.90
38500;DHT22;24269;51.894;4.622;2022-07-12T03:47:06;15.60;99.90
38500;DHT22;24269;51.894;4.622;2022-07-12T03:49:31;15.60;99.90
38500;DHT22;24269;51.894;4.622;2022-07-12T03:51:57;15.60;99.90
38500;DHT22;24269;51.894;4.622;2022-07-12T03:54:23;15.60;99.90
38500;DHT22;24269;51.894;4.622;2022-07-12T03:56:49;15.60;99.90
38500;DHT22;24269;51.894;4.622;2022-07-12T03:59:33;15.60;99.90
38500;DHT22;24269;51.894;4.622;2022-07-12T04:01:59;15.60;99.90
38500;DHT22;24269;51.894;4.622;2022-07-12T04:04:25;15.60;99.90
38500;DHT22;24269;51.894;4.622;2022-07-12T04:06:51;15.60;99.90
38500;DHT22;24269;51.894;4.622;2022-07-12T04:09:16;15.60;99.90
38500;DHT22;24269;51.894;4.622;2022-07-12T04:11:42;15.70;99.90
38500;DHT22;24269;51.894;4.622;2022-07-12T04:14:08;15.70;99.90
38500;DHT22;24269;51.894;4.622;2022-07-12T04:16:34;15.70;99.90
38500;DHT22;24269;51.894;4.622;2022-07-12T04:18:59;15.80;99.90
38500;DHT22;24269;51.894;4.622;2022-07-12T04:21:25;15.90;99.90
38500;DHT22;24269;51.894;4.622;2022-07-12T04:23:51;15.90;99.90
38500;DHT22;24269;51.894;4.622;2022-07-12T04:26:16;15.90;99.90
38500;DHT22;24269;51.894;4.622;2022-07-12T04:28:45;16.00;99.90
38500;DHT22;24269;51.894;4.622;2022-07-12T04:31:11;16.10;99.90
38500;DHT22;24269;51.894;4.622;2022-07-12T04:33:36;16.10;99.90
38500;DHT22;24269;51.894;4.622;2022-07-12T04:36:02;16.30;99.90
38500;DHT22;24269;51.894;4.622;2022-07-12T04:38:28;16.30;99.90
38500;DHT22;24269;51.894;4.622;2022-07-12T04:40:54;16.40;99.90
38500;DHT22;24269;51.894;4.622;2022-07-12T04:43:19;16.50;99.90
38500;DHT22;24269;51.894;4.622;2022-07-12T04:45:45;16.60;99.90
38500;DHT22;24269;51.894;4.622;2022-07-12T04:48:11;16.70;99.90
38500;DHT22;24269;51.894;4.622;2022-07-12T04:50:37;16.80;99.90
38500;DHT22;24269;51.894;4.622;2022-07-12T04:53:03;16.90;99.90
38500;DHT22;24269;51.894;4.622;2022-07-12T04:55:29;17.00;99.90
38500;DHT22;24269;51.894;4.622;2022-07-12T04:57:55;17.10;99.90
38500;DHT22;24269;51.894;4.622;2022-07-12T05:00:21;17.30;99.90
38500;DHT22;24269;51.894;4.622;2022-07-12T05:02:47;17.30;99.90
38500;DHT22;24269;51.894;4.622;2022-07-12T05:05:15;17.40;99.90
38500;DHT22;24269;51.894;4.622;2022-07-12T05:07:41;17.50;99.90
38500;DHT22;24269;51.894;4.622;2022-07-12T05:10:10;17.60;99.90
38500;DHT22;24269;51.894;4.622;2022-07-12T05:12:36;17.70;99.90
38500;DHT22;24269;51.894;4.622;2022-07-12T05:15:05;17.70;99.90
38500;DHT22;24269;51.894;4.622;2022-07-12T05:17:31;17.80;99.90
38500;DHT22;24269;51.894;4.622;2022-07-12T05:19:57;17.80;99.90
38500;DHT22;24269;51.894;4.622;2022-07-12T05:22:22;17.80;99.90
38500;DHT22;24269;51.894;4.622;2022-07-12T05:24:48;17.90;99.90
38500;DHT22;24269;51.894;4.622;2022-07-12T05:27:14;17.90;99.90
38500;DHT22;24269;51.894;4.622;2022-07-12T05:29:40;17.90;99.90
38500;DHT22;24269;51.894;4.622;2022-07-12T05:32:06;18.00;99.90
38500;DHT22;24269;51.894;4.622;2022-07-12T05:34:32;18.00;99.90
38500;DHT22;24269;51.894;4.622;2022-07-12T05:36:58;18.10;99.90
38500;DHT22;24269;51.894;4.622;2022-07-12T05:39:23;18.20;99.90
38500;DHT22;24269;51.894;4.622;2022-07-12T05:41:52;18.30;99.90
38500;DHT22;24269;51.894;4.622;2022-07-12T05:44:18;18.30;99.90
38500;DHT22;24269;51.894;4.622;2022-07-12T05:46:45;18.40;99.90
38500;DHT22;24269;51.894;4.622;2022-07-12T05:49:11;18.50;99.90
38500;DHT22;24269;51.894;4.622;2022-07-12T05:51:37;18.50;99.90
38500;DHT22;24269;51.894;4.622;2022-07-12T05:54:21;18.60;99.90
38500;DHT22;24269;51.894;4.622;2022-07-12T05:56:47;18.70;99.90
38500;DHT22;24269;51.894;4.622;2022-07-12T05:59:12;18.70;99.90
38500;DHT22;24269;51.894;4.622;2022-07-12T06:01:38;18.80;99.90
38500;DHT22;24269;51.894;4.622;2022-07-12T06:04:06;18.90;99.90
38500;DHT22;24269;51.894;4.622;2022-07-12T06:06:32;18.90;99.90
38500;DHT22;24269;51.894;4.622;2022-07-12T06:08:58;19.00;99.90
38500;DHT22;24269;51.894;4.622;2022-07-12T06:11:24;19.00;99.90
38500;DHT22;24269;51.894;4.622;2022-07-12T06:13:50;19.10;99.90
38500;DHT22;24269;51.894;4.622;2022-07-12T06:16:16;19.10;99.90
38500;DHT22;24269;51.894;4.622;2022-07-12T06:18:42;19.10;99.90
38500;DHT22;24269;51.894;4.622;2022-07-12T06:21:07;19.10;99.90
38500;DHT22;24269;51.894;4.622;2022-07-12T06:23:33;19.20;99.90
38500;DHT22;24269;51.894;4.622;2022-07-12T06:25:59;19.30;99.90
38500;DHT22;24269;51.894;4.622;2022-07-12T06:28:25;19.30;99.90
38500;DHT22;24269;51.894;4.622;2022-07-12T06:30:53;19.40;99.90
38500;DHT22;24269;51.894;4.622;2022-07-12T06:33:19;19.50;99.90
38500;DHT22;24269;51.894;4.622;2022-07-12T06:35:45;19.50;99.90
38500;DHT22;24269;51.894;4.622;2022-07-12T06:38:10;19.50;99.90
38500;DHT22;24269;51.894;4.622;2022-07-12T06:40:36;19.50;99.90
38500;DHT22;24269;51.894;4.622;2022-07-12T06:43:02;19.60;99.90
38500;DHT22;24269;51.894;4.622;2022-07-12T06:45:27;19.70;99.90
38500;DHT22;24269;51.894;4.622;2022-07-12T06:47:53;19.80;99.90
38500;DHT22;24269;51.894;4.622;2022-07-12T06:50:19;19.90;99.90
38500;DHT22;24269;51.894;4.622;2022-07-12T06:52:45;20.00;99.90
38500;DHT22;24269;51.894;4.622;2022-07-12T06:55:11;20.20;99.90
38500;DHT22;24269;51.894;4.622;2022-07-12T06:57:36;20.30;99.90
38500;DHT22;24269;51.894;4.622;2022-07-12T07:00:06;20.30;99.90
38500;DHT22;24269;51.894;4.622;2022-07-12T07:02:32;20.40;99.90
38500;DHT22;24269;51.894;4.622;2022-07-12T07:04:58;20.60;99.90
38500;DHT22;24269;51.894;4.622;2022-07-12T07:07:23;20.60;99.90
38500;DHT22;24269;51.894;4.622;2022-07-12T07:09:49;20.70;99.90
38500;DHT22;24269;51.894;4.622;2022-07-12T07:12:15;20.80;99.90
38500;DHT22;24269;51.894;4.622;2022-07-12T07:14:40;20.90;99.90
38500;DHT22;24269;51.894;4.622;2022-07-12T07:17:06;21.10;99.90
38500;DHT22;24269;51.894;4.622;2022-07-12T07:19:31;21.20;99.90
38500;DHT22;24269;51.894;4.622;2022-07-12T07:21:57;21.30;99.90
38500;DHT22;24269;51.894;4.622;2022-07-12T07:24:24;21.40;99.90
38500;DHT22;24269;51.894;4.622;2022-07-12T07:26:50;21.50;99.90
38500;DHT22;24269;51.894;4.622;2022-07-12T07:29:15;21.80;99.90
38500;DHT22;24269;51.894;4.622;2022-07-12T07:32:16;22.00;99.90
38500;DHT22;24269;51.894;4.622;2022-07-12T07:34:42;22.30;99.90
38500;DHT22;24269;51.894;4.622;2022-07-12T07:37:08;22.60;99.90
38500;DHT22;24269;51.894;4.622;2022-07-12T07:39:34;22.70;99.90
38500;DHT22;24269;51.894;4.622;2022-07-12T07:42:00;23.00;99.90
38500;DHT22;24269;51.894;4.622;2022-07-12T07:44:26;23.10;99.90
38500;DHT22;24269;51.894;4.622;2022-07-12T07:46:51;23.20;99.90
38500;DHT22;24269;51.894;4.622;2022-07-12T07:49:17;23.20;99.90
38500;DHT22;24269;51.894;4.622;2022-07-12T07:51:42;23.10;99.90
38500;DHT22;24269;51.894;4.622;2022-07-12T07:54:08;23.00;99.90
38500;DHT22;24269;51.894;4.622;2022-07-12T07:56:34;23.10;99.90
38500;DHT22;24269;51.894;4.622;2022-07-12T07:58:59;23.00;99.90
38500;DHT22;24269;51.894;4.622;2022-07-12T08:01:25;22.90;99.90
38500;DHT22;24269;51.894;4.622;2022-07-12T08:04:09;22.90;99.90
38500;DHT22;24269;51.894;4.622;2022-07-12T08:06:35;22.80;99.90
38500;DHT22;24269;51.894;4.622;2022-07-12T08:09:01;22.70;99.90
38500;DHT22;24269;51.894;4.622;2022-07-12T08:11:27;22.70;99.90
38500;DHT22;24269;51.894;4.622;2022-07-12T08:13:53;22.70;99.90
38500;DHT22;24269;51.894;4.622;2022-07-12T08:16:18;22.70;99.90
38500;DHT22;24269;51.894;4.622;2022-07-12T08:18:44;22.90;99.90
38500;DHT22;24269;51.894;4.622;2022-07-12T08:21:10;23.10;99.90
38500;DHT22;24269;51.894;4.622;2022-07-12T08:23:35;23.30;99.90
38500;DHT22;24269;51.894;4.622;2022-07-12T08:26:01;23.50;99.90
38500;DHT22;24269;51.894;4.622;2022-07-12T08:28:27;23.50;99.90
38500;DHT22;24269;51.894;4.622;2022-07-12T08:30:53;23.40;99.90
38500;DHT22;24269;51.894;4.622;2022-07-12T08:33:19;23.40;99.90
38500;DHT22;24269;51.894;4.622;2022-07-12T08:35:44;23.50;99.90
38500;DHT22;24269;51.894;4.622;2022-07-12T08:38:10;23.50;99.90
38500;DHT22;24269;51.894;4.622;2022-07-12T08:40:36;23.60;99.90
38500;DHT22;24269;51.894;4.622;2022-07-12T08:43:02;23.90;99.90
38500;DHT22;24269;51.894;4.622;2022-07-12T08:45:28;24.30;99.90
38500;DHT22;24269;51.894;4.622;2022-07-12T08:47:54;24.60;99.90
38500;DHT22;24269;51.894;4.622;2022-07-12T08:50:21;24.80;99.90
38500;DHT22;24269;51.894;4.622;2022-07-12T08:52:52;25.00;99.90
38500;DHT22;24269;51.894;4.622;2022-07-12T08:55:24;25.10;99.90
38500;DHT22;24269;51.894;4.622;2022-07-12T08:57:51;25.20;99.90
38500;DHT22;24269;51.894;4.622;2022-07-12T09:00:17;25.20;99.90
38500;DHT22;24269;51.894;4.622;2022-07-12T09:02:56;25.30;99.90
38500;DHT22;24269;51.894;4.622;2022-07-12T09:05:26;25.40;99.90
38500;DHT22;24269;51.894;4.622;2022-07-12T09:08:02;25.70;99.90
38500;DHT22;24269;51.894;4.622;2022-07-12T09:10:28;26.00;99.90
38500;DHT22;24269;51.894;4.622;2022-07-12T09:12:54;26.30;99.90
38500;DHT22;24269;51.894;4.622;2022-07-12T09:15:21;26.30;99.90
38500;DHT22;24269;51.894;4.622;2022-07-12T09:20:23;26.40;99.90
38500;DHT22;24269;51.894;4.622;2022-07-12T09:22:55;26.50;99.90
38500;DHT22;24269;51.894;4.622;2022-07-12T09:25:21;26.60;99.90
38500;DHT22;24269;51.894;4.622;2022-07-12T09:27:54;26.70;99.90
38500;DHT22;24269;51.894;4.622;2022-07-12T09:30:23;26.80;99.90
38500;DHT22;24269;51.894;4.622;2022-07-12T09:32:54;26.80;99.90
38500;DHT22;24269;51.894;4.622;2022-07-12T09:35:40;26.90;99.90
38500;DHT22;24269;51.894;4.622;2022-07-12T09:38:26;27.00;99.90
38500;DHT22;24269;51.894;4.622;2022-07-12T09:40:53;27.10;99.90
38500;DHT22;24269;51.894;4.622;2022-07-12T09:43:19;27.20;99.90
38500;DHT22;24269;51.894;4.622;2022-07-12T09:45:47;27.30;99.90
38500;DHT22;24269;51.894;4.622;2022-07-12T09:48:13;27.30;99.90
38500;DHT22;24269;51.894;4.622;2022-07-12T09:50:39;27.40;99.90
38500;DHT22;24269;51.894;4.622;2022-07-12T09:53:05;27.50;99.90
38500;DHT22;24269;51.894;4.622;2022-07-12T09:55:37;27.60;99.90
38500;DHT22;24269;51.894;4.622;2022-07-12T09:58:07;27.60;99.90
38500;DHT22;24269;51.894;4.622;2022-07-12T10:00:34;27.60;99.90
38500;DHT22;24269;51.894;4.622;2022-07-12T10:03:02;27.70;99.90
38500;DHT22;24269;51.894;4.622;2022-07-12T10:05:29;27.80;99.90
38500;DHT22;24269;51.894;4.622;2022-07-12T10:07:56;27.80;99.90
38500;DHT22;24269;51.894;4.622;2022-07-12T10:10:22;27.90;99.90
38500;DHT22;24269;51.894;4.622;2022-07-12T10:12:51;27.90;99.90
38500;DHT22;24269;51.894;4.622;2022-07-12T10:15:19;27.90;99.90
38500;DHT22;24269;51.894;4.622;2022-07-12T10:17:53;27.90;99.90
38500;DHT22;24269;51.894;4.622;2022-07-12T10:20:21;28.10;99.90
38500;DHT22;24269;51.894;4.622;2022-07-12T10:22:47;28.20;99.90
38500;DHT22;24269;51.894;4.622;2022-07-12T10:28:03;28.10;99.90
38500;DHT22;24269;51.894;4.622;2022-07-12T10:30:30;28.20;99.90
38500;DHT22;24269;51.894;4.622;2022-07-12T10:32:58;28.20;99.90
38500;DHT22;24269;51.894;4.622;2022-07-12T10:35:26;28.40;99.90
38500;DHT22;24269;51.894;4.622;2022-07-12T10:40:37;28.40;99.90
38500;DHT22;24269;51.894;4.622;2022-07-12T10:45:43;28.50;99.90
38500;DHT22;24269;51.894;4.622;2022-07-12T10:58:35;28.60;99.90
38500;DHT22;24269;51.894;4.622;2022-07-12T11:01:03;28.40;99.90
38500;DHT22;24269;51.894;4.622;2022-07-12T11:03:46;28.40;99.30
38500;DHT22;24269;51.894;4.622;2022-07-12T11:06:17;28.50;98.60
38500;DHT22;24269;51.894;4.622;2022-07-12T11:08:54;28.70;99.90
38500;DHT22;24269;51.894;4.622;2022-07-12T11:11:34;28.90;98.60
38500;DHT22;24269;51.894;4.622;2022-07-12T11:14:01;28.90;97.40
38500;DHT22;24269;51.894;4.622;2022-07-12T11:16:29;29.00;98.60
38500;DHT22;24269;51.894;4.622;2022-07-12T11:18:55;29.30;98.60
38500;DHT22;24269;51.894;4.622;2022-07-12T11:21:24;29.50;99.00
38500;DHT22;24269;51.894;4.622;2022-07-12T11:23:50;29.50;98.40
38500;DHT22;24269;51.894;4.622;2022-07-12T11:26:16;29.60;98.40
38500;DHT22;24269;51.894;4.622;2022-07-12T11:28:43;29.70;97.80
38500;DHT22;24269;51.894;4.622;2022-07-12T11:31:11;29.70;97.20
38500;DHT22;24269;51.894;4.622;2022-07-12T11:33:39;29.90;98.00
38500;DHT22;24269;51.894;4.622;2022-07-12T11:36:10;30.10;97.80
38500;DHT22;24269;51.894;4.622;2022-07-12T11:38:38;30.20;96.60
38500;DHT22;24269;51.894;4.622;2022-07-12T11:41:05;30.20;97.40
38500;DHT22;24269;51.894;4.622;2022-07-12T11:43:32;30.40;97.80
38500;DHT22;24269;51.894;4.622;2022-07-12T11:45:58;30.60;96.80
38500;DHT22;24269;51.894;4.622;2022-07-12T11:48:25;30.90;97.10
38500;DHT22;24269;51.894;4.622;2022-07-12T11:50:54;31.00;96.20
38500;DHT22;24269;51.894;4.622;2022-07-12T11:53:24;31.10;95.50
38500;DHT22;24269;51.894;4.622;2022-07-12T11:55:52;31.20;96.50
38500;DHT22;24269;51.894;4.622;2022-07-12T11:58:19;31.20;96.10
38500;DHT22;24269;51.894;4.622;2022-07-12T12:00:46;31.20;94.90
38500;DHT22;24269;51.894;4.622;2022-07-12T12:03:13;31.00;95.20
38500;DHT22;24269;51.894;4.622;2022-07-12T12:05:43;30.80;94.90
38500;DHT22;24269;51.894;4.622;2022-07-12T12:08:10;30.80;95.60
38500;DHT22;24269;51.894;4.622;2022-07-12T12:10:36;30.80;95.70
38500;DHT22;24269;51.894;4.622;2022-07-12T12:13:03;30.90;96.80
38500;DHT22;24269;51.894;4.622;2022-07-12T12:15:32;31.00;96.20
38500;DHT22;24269;51.894;4.622;2022-07-12T12:18:06;31.30;95.10
38500;DHT22;24269;51.894;4.622;2022-07-12T12:20:37;31.30;95.00
38500;DHT22;24269;51.894;4.622;2022-07-12T12:23:05;31.50;95.30
38500;DHT22;24269;51.894;4.622;2022-07-12T12:25:32;31.80;95.30
38500;DHT22;24269;51.894;4.622;2022-07-12T12:28:03;32.20;92.70
38500;DHT22;24269;51.894;4.622;2022-07-12T12:30:31;32.40;91.40
38500;DHT22;24269;51.894;4.622;2022-07-12T12:33:04;32.50;91.40
38500;DHT22;24269;51.894;4.622;2022-07-12T12:35:36;32.40;91.30
38500;DHT22;24269;51.894;4.622;2022-07-12T12:38:10;32.20;90.90
38500;DHT22;24269;51.894;4.622;2022-07-12T12:40:36;32.10;91.10
38500;DHT22;24269;51.894;4.622;2022-07-12T12:43:10;32.00;91.50
38500;DHT22;24269;51.894;4.622;2022-07-12T12:45:56;32.20;91.50
38500;DHT22;24269;51.894;4.622;2022-07-12T12:48:23;32.20;88.90
38500;DHT22;24269;51.894;4.622;2022-07-12T12:50:51;32.10;88.10
38500;DHT22;24269;51.894;4.622;2022-07-12T12:53:19;31.80;90.00
38500;DHT22;24269;51.894;4.622;2022-07-12T12:55:48;31.70;89.60
38500;DHT22;24269;51.894;4.622;2022-07-12T12:58:15;31.40;90.40
38500;DHT22;24269;51.894;4.622;2022-07-12T13:00:43;31.30;91.30
38500;DHT22;24269;51.894;4.622;2022-07-12T13:03:11;31.20;90.50
38500;DHT22;24269;51.894;4.622;2022-07-12T13:05:38;31.20;90.50
38500;DHT22;24269;51.894;4.622;2022-07-12T13:08:05;31.10;87.50
38500;DHT22;24269;51.894;4.622;2022-07-12T13:10:32;31.10;89.70
38500;DHT22;24269;51.894;4.622;2022-07-12T13:12:58;31.10;89.40
38500;DHT22;24269;51.894;4.622;2022-07-12T13:15:28;31.20;90.30
38500;DHT22;24269;51.894;4.622;2022-07-12T13:17:54;31.30;90.20
38500;DHT22;24269;51.894;4.622;2022-07-12T13:20:20;31.20;89.50
38500;DHT22;24269;51.894;4.622;2022-07-12T13:22:46;31.20;88.40
38500;DHT22;24269;51.894;4.622;2022-07-12T13:25:13;31.20;88.60
38500;DHT22;24269;51.894;4.622;2022-07-12T13:27:40;31.40;88.70
38500;DHT22;24269;51.894;4.622;2022-07-12T13:30:08;31.50;89.00
38500;DHT22;24269;51.894;4.622;2022-07-12T13:32:35;31.70;88.90
38500;DHT22;24269;51.894;4.622;2022-07-12T13:35:03;31.90;90.10
38500;DHT22;24269;51.894;4.622;2022-07-12T13:37:29;32.00;88.10
38500;DHT22;24269;51.894;4.622;2022-07-12T13:39:55;32.20;90.00
38500;DHT22;24269;51.894;4.622;2022-07-12T13:42:44;32.30;88.00
38500;DHT22;24269;51.894;4.622;2022-07-12T13:45:12;32.40;84.80
38500;DHT22;24269;51.894;4.622;2022-07-12T13:47:38;32.20;85.10
38500;DHT22;24269;51.894;4.622;2022-07-12T13:50:05;32.30;86.90
38500;DHT22;24269;51.894;4.622;2022-07-12T13:52:31;32.30;85.90
38500;DHT22;24269;51.894;4.622;2022-07-12T13:54:57;32.30;84.10
38500;DHT22;24269;51.894;4.622;2022-07-12T13:57:23;32.30;86.50
38500;DHT22;24269;51.894;4.622;2022-07-12T13:59:50;32.40;87.40
38500;DHT22;24269;51.894;4.622;2022-07-12T14:02:15;32.50;84.00
38500;DHT22;24269;51.894;4.622;2022-07-12T14:04:41;32.60;82.90
38500;DHT22;24269;51.894;4.622;2022-07-12T14:07:07;32.50;83.00
38500;DHT22;24269;51.894;4.622;2022-07-12T14:09:33;32.30;82.30
38500;DHT22;24269;51.894;4.622;2022-07-12T14:11:58;32.10;78.80
38500;DHT22;24269;51.894;4.622;2022-07-12T14:14:27;31.80;80.80
38500;DHT22;24269;51.894;4.622;2022-07-12T14:17:11;31.60;82.30
38500;DHT22;24269;51.894;4.622;2022-07-12T14:19:37;31.60;80.70
38500;DHT22;24269;51.894;4.622;2022-07-12T14:22:03;31.70;80.80
38500;DHT22;24269;51.894;4.622;2022-07-12T14:24:28;31.60;74.70
38500;DHT22;24269;51.894;4.622;2022-07-12T14:26:54;31.60;77.10
38500;DHT22;24269;51.894;4.622;2022-07-12T14:29:20;31.80;79.90
38500;DHT22;24269;51.894;4.622;2022-07-12T14:31:45;32.00;77.80
38500;DHT22;24269;51.894;4.622;2022-07-12T14:34:12;31.90;77.30
38500;DHT22;24269;51.894;4.622;2022-07-12T14:36:37;31.90;75.40
38500;DHT22;24269;51.894;4.622;2022-07-12T14:39:03;31.80;76.70
38500;DHT22;24269;51.894;4.622;2022-07-12T14:41:29;31.50;76.50
38500;DHT22;24269;51.894;4.622;2022-07-12T14:43:55;31.20;76.60
38500;DHT22;24269;51.894;4.622;2022-07-12T14:46:21;30.90;76.30
38500;DHT22;24269;51.894;4.622;2022-07-12T14:48:47;30.70;79.30
38500;DHT22;24269;51.894;4.622;2022-07-12T14:51:12;30.50;80.90
38500;DHT22;24269;51.894;4.622;2022-07-12T14:53:38;30.40;80.50
38500;DHT22;24269;51.894;4.622;2022-07-12T14:56:04;30.30;80.00
38500;DHT22;24269;51.894;4.622;2022-07-12T14:58:29;30.30;79.30
38500;DHT22;24269;51.894;4.622;2022-07-12T15:00:56;30.30;78.60
38500;DHT22;24269;51.894;4.622;2022-07-12T15:03:22;30.30;80.50
38500;DHT22;24269;51.894;4.622;2022-07-12T15:05:48;30.50;79.70
38500;DHT22;24269;51.894;4.622;2022-07-12T15:08:13;30.70;81.30
38500;DHT22;24269;51.894;4.622;2022-07-12T15:10:39;31.00;78.80
38500;DHT22;24269;51.894;4.622;2022-07-12T15:13:05;31.00;78.40
38500;DHT22;24269;51.894;4.622;2022-07-12T15:15:31;30.90;80.40
38500;DHT22;24269;51.894;4.622;2022-07-12T15:17:57;31.10;80.00
38500;DHT22;24269;51.894;4.622;2022-07-12T15:20:23;31.20;81.80
38500;DHT22;24269;51.894;4.622;2022-07-12T15:22:48;31.30;82.10
38500;DHT22;24269;51.894;4.622;2022-07-12T15:25:14;31.40;79.70
38500;DHT22;24269;51.894;4.622;2022-07-12T15:27:40;31.40;81.00
38500;DHT22;24269;51.894;4.622;2022-07-12T15:30:06;31.20;82.50
38500;DHT22;24269;51.894;4.622;2022-07-12T15:32:32;30.90;82.20
38500;DHT22;24269;51.894;4.622;2022-07-12T15:34:57;30.60;83.90
38500;DHT22;24269;51.894;4.622;2022-07-12T15:37:23;30.40;85.20
38500;DHT22;24269;51.894;4.622;2022-07-12T15:39:49;30.30;86.10
38500;DHT22;24269;51.894;4.622;2022-07-12T15:42:15;30.10;86.20
38500;DHT22;24269;51.894;4.622;2022-07-12T15:44:40;30.00;84.60
38500;DHT22;24269;51.894;4.622;2022-07-12T15:47:08;29.90;84.40
38500;DHT22;24269;51.894;4.622;2022-07-12T15:49:38;29.70;84.90
38500;DHT22;24269;51.894;4.622;2022-07-12T15:52:04;29.60;85.20
38500;DHT22;24269;51.894;4.622;2022-07-12T15:54:57;29.60;85.40